Time;durP1;ratioP1;P1;durP2;ratioP2;P2;SDS_P1;SDS_P2;PMS_P1;PMS_P2;Temp;Humidity;BMP_temperature;BMP_pressure;BME280_temperature;BME280_humidity;BME280_pressure;Samples;Min_cycle;Max_cycle;Signal;HPM_P1;HPM_P2
2023/10/13 00:00:41;;;;;;;62.05;34.15;;;14.70;99.90;;;;;;5002790;28;20048;-57
2023/10/13 00:03:14;;;;;;;63.45;33.88;;;14.80;99.90;;;;;;5006795;28;20041;-58
2023/10/13 00:05:42;;;;;;;66.40;35.28;;;14.80;99.90;;;;;;5005860;28;20084;-57
2023/10/13 00:08:09;;;;;;;66.53;37.53;;;14.90;99.90;;;;;;4999014;28;20576;-58
2023/10/13 00:10:35;;;;;;;66.93;35.20;;;14.90;99.90;;;;;;5005599;28;20096;-58
2023/10/13 00:13:15;;;;;;;86.03;39.92;;;14.90;99.90;;;;;;5005256;28;20060;-59
2023/10/13 00:15:57;;;;;;;69.57;36.40;;;15.00;99.90;;;;;;4990836;28;20054;-57
2023/10/13 00:18:33;;;;;;;73.45;36.67;;;15.00;99.90;;;;;;4990895;28;20057;-58
2023/10/13 00:21:12;;;;;;;67.47;34.80;;;15.10;99.90;;;;;;5004566;28;20046;-56
2023/10/13 00:23:52;;;;;;;70.65;36.70;;;15.10;99.90;;;;;;5007199;28;20049;-58
2023/10/13 00:26:29;;;;;;;69.63;36.53;;;15.20;99.90;;;;;;5002836;28;20045;-58
2023/10/13 00:29:09;;;;;;;79.30;38.00;;;15.20;99.90;;;;;;5001745;28;20103;-58
2023/10/13 00:31:38;;;;;;;70.10;37.05;;;15.20;99.90;;;;;;4986234;28;20042;-58
2023/10/13 00:34:20;;;;;;;72.40;37.25;;;15.30;99.90;;;;;;4989854;28;20121;-58
2023/10/13 00:36:48;;;;;;;67.05;35.70;;;15.30;99.90;;;;;;5006154;28;20137;-59
2023/10/13 00:39:18;;;;;;;75.22;36.97;;;15.30;99.90;;;;;;4993472;28;20049;-58
2023/10/13 00:41:57;;;;;;;61.75;34.78;;;15.40;99.90;;;;;;5003634;28;20416;-58
2023/10/13 00:44:37;;;;;;;64.20;36.20;;;15.40;99.90;;;;;;5001888;28;20555;-58
2023/10/13 00:47:07;;;;;;;79.07;37.13;;;15.40;99.90;;;;;;5006753;28;20125;-57
2023/10/13 00:49:39;;;;;;;68.75;36.42;;;15.50;99.90;;;;;;4989548;28;20077;-58
2023/10/13 00:52:06;;;;;;;61.40;32.72;;;15.50;99.90;;;;;;5006262;28;20490;-58
2023/10/13 00:54:35;;;;;;;59.38;32.65;;;15.50;99.90;;;;;;4973726;28;20054;-58
2023/10/13 00:57:07;;;;;;;54.15;29.60;;;15.60;99.90;;;;;;5006962;28;20053;-58
2023/10/13 00:59:36;;;;;;;65.57;32.58;;;15.60;99.90;;;;;;5000751;28;20034;-58
2023/10/13 01:02:37;;;;;;;56.47;29.30;;;15.60;99.90;;;;;;4996074;28;20049;-59
2023/10/13 01:04:48;;;;;;;57.10;29.25;;;15.70;99.90;;;;;;5002067;28;20061;-59
2023/10/13 01:07:16;;;;;;;51.13;27.83;;;15.80;99.90;;;;;;5004891;28;20417;-59
2023/10/13 01:09:42;;;;;;;61.25;31.23;;;15.80;99.90;;;;;;5001552;28;20163;-58
2023/10/13 01:12:08;;;;;;;58.53;28.73;;;15.80;99.90;;;;;;4985737;28;20612;-55
2023/10/13 01:14:35;;;;;;;55.35;27.80;;;15.80;99.90;;;;;;4989726;28;20050;-58
2023/10/13 01:17:03;;;;;;;45.65;25.17;;;15.90;99.90;;;;;;5004666;28;20030;-58
2023/10/13 01:19:29;;;;;;;47.08;26.45;;;15.90;99.90;;;;;;5006049;28;20269;-58
2023/10/13 01:22:02;;;;;;;44.90;23.17;;;16.00;99.90;;;;;;4986873;28;20037;-58
2023/10/13 01:24:31;;;;;;;34.35;21.08;;;16.00;99.90;;;;;;5006319;28;20057;-58
2023/10/13 01:26:58;;;;;;;34.97;21.60;;;16.10;99.90;;;;;;5004655;28;20081;-58
2023/10/13 01:29:28;;;;;;;41.22;21.27;;;16.20;99.90;;;;;;5009527;28;20057;-59
2023/10/13 01:31:55;;;;;;;40.03;20.73;;;16.20;99.90;;;;;;5006503;28;20042;-59
2023/10/13 01:34:23;;;;;;;31.33;19.92;;;16.20;99.90;;;;;;5004176;28;20048;-58
2023/10/13 01:36:53;;;;;;;35.88;20.05;;;16.20;99.90;;;;;;5004320;28;20034;-58
2023/10/13 01:39:28;;;;;;;39.97;20.92;;;16.30;99.90;;;;;;4982666;28;20072;-58
2023/10/13 01:41:55;;;;;;;34.88;19.23;;;16.30;99.90;;;;;;5004863;28;20041;-57
2023/10/13 01:44:30;;;;;;;38.55;20.63;;;16.30;99.90;;;;;;4987938;28;20038;-57
2023/10/13 01:46:59;;;;;;;37.78;19.60;;;16.30;99.90;;;;;;5002934;28;20038;-58
2023/10/13 01:49:25;;;;;;;29.98;19.33;;;16.30;99.90;;;;;;5003121;28;20531;-58
2023/10/13 01:51:51;;;;;;;35.05;18.45;;;16.30;99.90;;;;;;5006341;28;20678;-58
2023/10/13 01:54:17;;;;;;;35.38;18.38;;;16.30;99.90;;;;;;5007273;28;20049;-58
2023/10/13 01:56:43;;;;;;;27.23;16.77;;;16.30;99.90;;;;;;5005401;28;20413;-57
2023/10/13 01:59:10;;;;;;;30.70;17.88;;;16.40;99.90;;;;;;4990041;28;20048;-57
2023/10/13 02:01:36;;;;;;;28.92;17.27;;;16.40;99.90;;;;;;4986983;28;20041;-59
2023/10/13 02:04:03;;;;;;;34.47;17.17;;;16.30;99.90;;;;;;5005696;28;20087;-57
2023/10/13 02:06:33;;;;;;;28.50;17.35;;;16.40;99.90;;;;;;5001590;28;20117;-57
2023/10/13 02:09:16;;;;;;;34.80;18.52;;;16.40;99.90;;;;;;5000688;28;20049;-58
2023/10/13 02:11:46;;;;;;;30.20;18.23;;;16.40;99.90;;;;;;5003082;28;20085;-56
2023/10/13 02:14:16;;;;;;;37.00;18.17;;;16.40;99.90;;;;;;5005181;28;20045;-58
2023/10/13 02:16:42;;;;;;;33.85;19.25;;;16.40;99.90;;;;;;5002855;28;20050;-57
2023/10/13 02:19:08;;;;;;;31.10;20.15;;;16.40;99.90;;;;;;5003586;28;20121;-58
2023/10/13 02:21:39;;;;;;;34.53;20.90;;;16.40;99.90;;;;;;5006241;28;20129;-58
2023/10/13 02:24:12;;;;;;;37.75;20.85;;;16.50;99.90;;;;;;5002033;28;20388;-58
2023/10/13 02:26:39;;;;;;;39.50;20.45;;;16.50;99.90;;;;;;5004584;28;20045;-58
2023/10/13 02:29:08;;;;;;;38.90;22.77;;;16.40;99.90;;;;;;5004908;28;20423;-58
2023/10/13 02:31:38;;;;;;;37.03;21.02;;;16.50;99.90;;;;;;5005609;28;20042;-57
2023/10/13 02:34:07;;;;;;;47.03;23.30;;;16.50;99.90;;;;;;5009327;28;20125;-59
2023/10/13 02:36:49;;;;;;;43.67;23.48;;;16.50;99.90;;;;;;5007407;28;20568;-58
2023/10/13 02:39:16;;;;;;;41.80;24.40;;;16.60;99.90;;;;;;5001136;28;20117;-58
2023/10/13 02:41:48;;;;;;;40.60;24.63;;;16.50;99.90;;;;;;5005267;28;20117;-59
2023/10/13 02:44:36;;;;;;;46.95;26.23;;;16.50;99.90;;;;;;4999529;28;20049;-58
2023/10/13 02:47:00;;;;;;;43.08;25.05;;;16.50;99.90;;;;;;5019439;28;20556;-58
2023/10/13 02:49:27;;;;;;;41.38;26.25;;;16.60;99.90;;;;;;5005637;28;20126;-59
2023/10/13 02:51:56;;;;;;;44.72;26.90;;;16.60;99.90;;;;;;5008435;28;20049;-57
2023/10/13 02:54:21;;;;;;;41.38;25.55;;;16.60;99.90;;;;;;4999239;28;20485;-59
2023/10/13 02:57:03;;;;;;;42.97;27.73;;;16.60;99.90;;;;;;5007960;28;20100;-59
2023/10/13 02:59:34;;;;;;;44.00;25.38;;;16.60;99.90;;;;;;5008268;28;20045;-59
2023/10/13 03:02:07;;;;;;;44.45;26.65;;;16.60;99.90;;;;;;5008323;28;20127;-57
2023/10/13 03:04:33;;;;;;;48.00;27.67;;;16.60;99.90;;;;;;5003558;28;20103;-57
2023/10/13 03:06:59;;;;;;;42.83;26.85;;;16.60;99.90;;;;;;4982695;28;20038;-58
2023/10/13 03:09:25;;;;;;;41.15;27.13;;;16.60;99.90;;;;;;5001931;28;20046;-59
2023/10/13 03:11:51;;;;;;;46.28;28.02;;;16.70;99.90;;;;;;5008952;28;20048;-59
2023/10/13 03:14:31;;;;;;;46.75;27.92;;;16.60;99.90;;;;;;4986820;28;20038;-58
2023/10/13 03:17:22;;;;;;;45.95;28.88;;;16.70;99.90;;;;;;4991083;28;20050;-58
2023/10/13 03:19:54;;;;;;;45.28;26.75;;;16.70;99.90;;;;;;5007365;28;20041;-59
2023/10/13 03:22:30;;;;;;;39.97;26.52;;;16.60;99.90;;;;;;5007661;28;20042;-57
2023/10/13 03:24:59;;;;;;;50.22;28.75;;;16.60;99.90;;;;;;5004831;28;20108;-58
2023/10/13 03:27:39;;;;;;;45.45;27.00;;;16.70;99.90;;;;;;4992787;28;20042;-59
2023/10/13 03:30:13;;;;;;;35.17;24.25;;;16.70;99.90;;;;;;5003855;28;20378;-57
2023/10/13 03:32:43;;;;;;;;;;;16.60;99.90;;;;;;4992939;28;20176;-57
2023/10/13 03:35:14;;;;;;;34.70;23.17;;;16.60;99.90;;;;;;5007926;28;20347;-58
2023/10/13 03:37:40;;;;;;;36.88;23.52;;;16.60;99.90;;;;;;5006478;28;20135;-59
2023/10/13 03:45:42;;;;;;;30.45;21.30;;;16.70;99.90;;;;;;5006356;28;20077;-58
2023/10/13 03:48:27;;;;;;;31.33;19.55;;;16.70;99.90;;;;;;5005715;28;20089;-58
2023/10/13 03:53:34;;;;;;;28.00;19.05;;;16.60;99.90;;;;;;5017191;28;20049;-58
2023/10/13 03:56:08;;;;;;;25.80;18.95;;;16.60;99.90;;;;;;4983628;28;20056;-59
2023/10/13 03:58:41;;;;;;;23.90;18.10;;;16.60;99.90;;;;;;4997353;28;20049;-58
2023/10/13 04:01:09;;;;;;;25.50;17.45;;;16.60;99.90;;;;;;5003210;28;20042;-59
2023/10/13 04:03:38;;;;;;;27.20;18.10;;;16.60;99.90;;;;;;5007218;28;20470;-59
2023/10/13 04:06:08;;;;;;;23.80;16.70;;;16.70;99.90;;;;;;5004172;28;20119;-57
2023/10/13 04:16:37;;;;;;;20.50;15.32;;;16.60;99.90;;;;;;5009162;28;20015;-58
2023/10/13 04:24:09;;;;;;;23.42;15.95;;;16.70;99.90;;;;;;5006340;28;20520;-59
2023/10/13 04:26:59;;;;;;;22.52;16.35;;;16.70;99.90;;;;;;5007514;28;20116;-59
2023/10/13 04:32:13;;;;;;;29.13;18.10;;;16.70;99.90;;;;;;5006014;28;20038;-59
2023/10/13 04:34:39;;;;;;;26.98;18.02;;;16.70;99.90;;;;;;5007616;28;20053;-58
2023/10/13 04:37:28;;;;;;;24.92;17.55;;;16.70;99.90;;;;;;5001478;28;20049;-59
2023/10/13 04:39:59;;;;;;;24.23;16.98;;;16.70;99.90;;;;;;5023388;28;20077;-57
2023/10/13 04:48:12;;;;;;;30.15;18.40;;;16.70;99.90;;;;;;5005682;28;20049;-57
2023/10/13 04:50:44;;;;;;;30.95;19.00;;;16.70;99.90;;;;;;5002856;28;20049;-59
2023/10/13 04:53:27;;;;;;;31.52;19.13;;;16.70;99.90;;;;;;4987213;28;20506;-58
2023/10/13 04:59:17;;;;;;;23.98;16.73;;;16.70;99.90;;;;;;5002393;28;20121;-57
2023/10/13 05:04:08;;;;;;;22.38;14.48;;;16.70;99.90;;;;;;5000123;28;20030;-58
2023/10/13 05:45:24;;;;;;;;;;;16.60;99.90;;;;;;5004509;28;20079;-59
2023/10/13 05:48:00;;;;;;;14.25;9.95;;;16.60;99.90;;;;;;5002621;28;19964;-58
2023/10/13 06:31:07;;;;;;;9.50;7.55;;;16.50;99.90;;;;;;5001498;28;20053;-58
2023/10/13 06:33:42;;;;;;;9.95;7.32;;;16.50;99.90;;;;;;4971326;28;20467;-58
2023/10/13 06:36:10;;;;;;;10.00;6.85;;;16.50;99.90;;;;;;4985049;28;20378;-58
2023/10/13 06:38:37;;;;;;;9.88;7.10;;;16.60;99.90;;;;;;5001962;28;20368;-59
2023/10/13 06:41:06;;;;;;;9.43;7.97;;;16.60;99.90;;;;;;5004068;28;20164;-59
2023/10/13 06:43:43;;;;;;;9.85;7.97;;;16.60;99.90;;;;;;4999826;28;20493;-59
2023/10/13 06:46:14;;;;;;;9.90;7.78;;;16.60;99.90;;;;;;5001910;28;20046;-57
2023/10/13 06:48:41;;;;;;;11.07;8.23;;;16.60;99.90;;;;;;5000261;28;20260;-59
2023/10/13 06:51:26;;;;;;;12.82;7.28;;;16.70;99.90;;;;;;4971796;28;20052;-59
2023/10/13 06:53:56;;;;;;;10.38;6.10;;;16.70;99.90;;;;;;5001576;28;20043;-58
2023/10/13 06:56:26;;;;;;;8.07;5.00;;;16.70;99.90;;;;;;5005041;28;20070;-57
2023/10/13 06:58:59;;;;;;;11.88;5.25;;;16.70;99.90;;;;;;5002031;28;20113;-59
2023/10/13 07:01:26;;;;;;;9.95;5.18;;;16.70;99.90;;;;;;4998785;28;20037;-59
2023/10/13 07:04:00;;;;;;;10.23;5.22;;;16.70;99.90;;;;;;4985253;28;20046;-58
2023/10/13 07:06:27;;;;;;;9.23;4.95;;;16.70;99.90;;;;;;5001818;28;20034;-59
2023/10/13 07:08:53;;;;;;;14.43;5.47;;;16.70;99.90;;;;;;5004553;28;20049;-59
2023/10/13 07:11:37;;;;;;;12.93;5.45;;;16.70;99.90;;;;;;5001524;28;20048;-59
2023/10/13 07:14:10;;;;;;;17.70;5.47;;;16.70;99.90;;;;;;4998544;28;20100;-59
2023/10/13 07:16:58;;;;;;;15.50;5.40;;;16.70;99.90;;;;;;4985382;28;20038;-59
2023/10/13 07:19:27;;;;;;;11.98;5.25;;;16.80;99.90;;;;;;5001124;28;20038;-59
2023/10/13 07:22:23;;;;;;;14.75;5.95;;;16.80;99.90;;;;;;5002975;28;20037;-59
2023/10/13 07:24:50;;;;;;;15.50;5.57;;;16.80;99.90;;;;;;5003335;28;20046;-58
2023/10/13 07:27:23;;;;;;;14.77;6.38;;;16.80;99.90;;;;;;5001978;28;20127;-57
2023/10/13 07:30:13;;;;;;;18.08;6.20;;;16.70;99.90;;;;;;5004188;28;20046;-59
2023/10/13 07:32:45;;;;;;;13.73;6.40;;;16.70;99.90;;;;;;4999744;28;20133;-58
2023/10/13 07:35:19;;;;;;;15.95;6.07;;;16.70;99.90;;;;;;5000698;28;20042;-57
2023/10/13 07:37:48;;;;;;;12.35;5.53;;;16.70;99.90;;;;;;5005102;28;20077;-58
2023/10/13 07:43:03;;;;;;;13.40;6.53;;;16.70;99.90;;;;;;5002738;28;20038;-56
2023/10/13 07:45:36;;;;;;;15.40;6.20;;;16.70;99.90;;;;;;4986368;28;20057;-56
2023/10/13 07:48:20;;;;;;;16.48;6.50;;;16.70;99.90;;;;;;5005048;28;20053;-59
2023/10/13 07:51:16;;;;;;;17.00;6.55;;;16.60;99.90;;;;;;5004703;28;20884;-57
2023/10/13 07:53:43;;;;;;;15.27;5.90;;;16.70;99.90;;;;;;5004526;28;20037;-58
2023/10/13 07:56:12;;;;;;;16.58;6.72;;;16.70;99.90;;;;;;5007195;28;20385;-57
2023/10/13 07:58:52;;;;;;;15.38;6.88;;;16.70;99.90;;;;;;5008670;28;20052;-59
2023/10/13 08:01:19;;;;;;;20.70;6.50;;;16.60;99.90;;;;;;5006690;28;20046;-59
2023/10/13 08:03:46;;;;;;;15.38;6.35;;;16.60;99.90;;;;;;5008343;28;20045;-59
2023/10/13 08:08:40;;;;;;;13.70;6.57;;;16.60;99.90;;;;;;5005754;28;20061;-59
2023/10/13 08:13:59;;;;;;;17.98;7.18;;;16.70;99.90;;;;;;5007496;28;20460;-59
2023/10/13 08:19:17;;;;;;;18.25;6.38;;;16.70;99.90;;;;;;5005844;28;20054;-59
2023/10/13 08:21:51;;;;;;;18.00;7.47;;;16.80;99.90;;;;;;5007285;28;20050;-59
2023/10/13 08:24:25;;;;;;;15.00;6.65;;;16.80;99.90;;;;;;5004349;28;20042;-59
2023/10/13 08:26:57;;;;;;;;;;;16.80;99.90;;;;;;4987612;28;20117;-59
2023/10/13 08:32:14;;;;;;;15.32;6.38;;;16.80;99.90;;;;;;5006462;28;20053;-58
2023/10/13 08:39:58;;;;;;;14.82;6.80;;;16.90;99.90;;;;;;5007345;28;20061;-58
2023/10/13 08:48:07;;;;;;;12.13;6.85;;;17.00;99.90;;;;;;5004962;28;20042;-59
2023/10/13 09:01:45;;;;;;;17.55;8.43;;;17.20;99.90;;;;;;5001502;28;20054;-57
2023/10/13 09:18:12;;;;;;;17.65;9.25;;;17.50;99.90;;;;;;5002807;28;20053;-60
2023/10/13 09:23:09;;;;;;;15.77;8.73;;;17.70;99.90;;;;;;5001629;28;20620;-60
2023/10/13 09:25:38;;;;;;;15.02;8.23;;;17.80;99.90;;;;;;5003214;28;20146;-59
2023/10/13 09:28:18;;;;;;;16.80;8.18;;;17.80;99.90;;;;;;5004956;28;20120;-60
2023/10/13 09:30:52;;;;;;;14.13;8.18;;;17.90;99.90;;;;;;5002868;28;20096;-58
2023/10/13 09:33:32;;;;;;;19.67;8.68;;;18.00;99.90;;;;;;4983975;28;20056;-60
2023/10/13 09:35:59;;;;;;;13.43;7.88;;;18.10;99.90;;;;;;4999742;28;20046;-60
2023/10/13 09:38:28;;;;;;;12.65;7.40;;;18.20;99.90;;;;;;4996688;28;20038;-60
2023/10/13 09:40:57;;;;;;;14.35;8.40;;;18.30;99.90;;;;;;5002009;28;20038;-58
2023/10/13 09:43:25;;;;;;;16.15;7.97;;;18.40;99.90;;;;;;5005192;28;20464;-59
2023/10/13 09:46:01;;;;;;;15.25;7.55;;;18.50;99.90;;;;;;5008300;28;20056;-60
2023/10/13 09:48:45;;;;;;;15.20;6.70;;;18.60;99.90;;;;;;5003456;28;20042;-59
2023/10/13 09:51:12;;;;;;;;;;;18.60;99.90;;;;;;5000369;28;20248;-60
2023/10/13 09:53:41;;;;;;;14.15;6.35;;;18.60;99.90;;;;;;4990109;28;19975;-58
2023/10/13 09:56:26;;;;;;;12.02;6.40;;;18.70;99.90;;;;;;4999679;28;20054;-59
2023/10/13 09:59:09;;;;;;;15.00;6.03;;;18.80;99.90;;;;;;5001302;28;20095;-60
2023/10/13 10:01:51;;;;;;;14.27;7.40;;;18.80;99.90;;;;;;5127719;27;20820;-58
2023/10/13 10:04:19;;;;;;;13.63;6.32;;;18.80;99.90;;;;;;5124635;27;20078;-59
2023/10/13 10:06:56;;;;;;;14.95;6.10;;;18.80;99.90;;;;;;5142574;27;20414;-58
2023/10/13 10:09:37;;;;;;;16.63;6.55;;;18.80;99.90;;;;;;5117064;27;20124;-60
2023/10/13 10:12:13;;;;;;;10.95;5.32;;;18.90;99.90;;;;;;5112384;27;20040;-60
2023/10/13 10:14:42;;;;;;;11.35;5.95;;;18.80;99.90;;;;;;5113003;27;20493;-57
2023/10/13 10:17:08;;;;;;;10.38;5.78;;;18.80;99.90;;;;;;5115837;27;20044;-57
2023/10/13 10:19:57;;;;;;;11.48;5.75;;;18.80;99.90;;;;;;5115623;27;20043;-58
2023/10/13 10:22:35;;;;;;;13.27;6.90;;;18.90;99.90;;;;;;5102056;27;20119;-57
2023/10/13 10:25:14;;;;;;;15.40;6.20;;;19.10;99.90;;;;;;5117402;27;20046;-58
2023/10/13 10:27:41;;;;;;;19.02;6.72;;;19.10;99.90;;;;;;5128180;27;20094;-58
2023/10/13 10:30:13;;;;;;;11.05;5.68;;;19.20;99.90;;;;;;5111911;27;20051;-57
2023/10/13 10:32:41;;;;;;;17.05;6.68;;;19.30;99.90;;;;;;5097913;27;20051;-57
2023/10/13 10:35:15;;;;;;;15.02;6.43;;;19.30;99.90;;;;;;5117684;27;20413;-58
2023/10/13 10:37:46;;;;;;;;;;;19.30;99.90;;;;;;5108536;27;20135;-58
2023/10/13 10:40:58;;;;;;;14.80;5.63;;;19.30;99.90;;;;;;5107434;27;20006;-58
2023/10/13 10:43:08;;;;;;;15.32;6.53;;;19.30;99.90;;;;;;5106863;27;20104;-56
2023/10/13 10:45:35;;;;;;;13.13;5.95;;;19.30;99.90;;;;;;5096582;28;20046;-58
2023/10/13 10:48:16;;;;;;;14.52;5.38;;;19.30;99.90;;;;;;5116914;27;20051;-58
2023/10/13 10:50:43;;;;;;;14.23;6.38;;;19.30;99.90;;;;;;5118289;27;20134;-57
2023/10/13 10:53:09;;;;;;;14.98;6.07;;;19.40;99.90;;;;;;5103048;28;20039;-58
2023/10/13 10:55:38;;;;;;;12.23;5.75;;;19.50;99.90;;;;;;5115640;27;20048;-58
2023/10/13 10:58:23;;;;;;;14.95;5.95;;;19.70;99.90;;;;;;5114902;27;20561;-58
2023/10/13 11:00:50;;;;;;;18.20;5.88;;;19.80;99.90;;;;;;5119009;27;20413;-58
2023/10/13 11:03:17;;;;;;;16.95;6.78;;;19.80;99.90;;;;;;5113561;27;20052;-58
2023/10/13 11:05:46;;;;;;;12.70;6.20;;;19.80;99.90;;;;;;5115007;27;20119;-58
2023/10/13 11:08:37;;;;;;;14.18;5.85;;;19.70;99.90;;;;;;5115402;27;20044;-58
2023/10/13 11:11:17;;;;;;;12.23;6.30;;;19.70;99.90;;;;;;5091221;28;20035;-59
2023/10/13 11:14:03;;;;;;;16.95;6.90;;;19.70;99.90;;;;;;5103555;27;20040;-58
2023/10/13 11:16:34;;;;;;;17.35;5.97;;;19.60;99.90;;;;;;5099255;28;20426;-56
2023/10/13 11:19:07;;;;;;;15.93;6.05;;;19.60;99.90;;;;;;5102109;28;20097;-58
2023/10/13 11:21:32;;;;;;;15.50;5.88;;;19.60;99.90;;;;;;5102566;27;20098;-59
2023/10/13 11:24:08;;;;;;;15.18;5.63;;;19.60;99.90;;;;;;5097173;28;20043;-57
2023/10/13 11:26:35;;;;;;;18.30;6.13;;;19.70;99.90;;;;;;5105886;27;20439;-59
2023/10/13 11:29:10;;;;;;;19.50;6.20;;;19.70;99.90;;;;;;5094130;28;20466;-58
2023/10/13 11:31:37;;;;;;;15.07;5.57;;;19.70;99.90;;;;;;5083472;28;20048;-56
2023/10/13 11:34:05;;;;;;;14.30;5.38;;;19.70;99.90;;;;;;5103920;28;20040;-57
2023/10/13 11:36:33;;;;;;;23.83;6.18;;;19.70;99.90;;;;;;5098855;28;20043;-61
2023/10/13 11:38:58;;;;;;;12.05;5.88;;;19.70;99.90;;;;;;5102143;27;20112;-58
2023/10/13 11:41:32;;;;;;;14.40;5.45;;;19.60;99.90;;;;;;5101940;28;20047;-57
2023/10/13 11:44:23;;;;;;;21.67;6.03;;;19.50;99.90;;;;;;5101003;28;20061;-56
2023/10/13 11:46:55;;;;;;;12.18;5.68;;;19.50;99.90;;;;;;5097312;28;20038;-60
2023/10/13 11:54:41;;;;;;;18.08;7.43;;;19.10;99.90;;;;;;5105109;28;20044;-61
2023/10/13 11:57:08;;;;;;;14.80;6.72;;;19.00;99.90;;;;;;5100753;28;20046;-57
2023/10/13 11:59:36;;;;;;;15.52;6.57;;;19.00;99.90;;;;;;5105277;28;20498;-57
2023/10/13 12:12:18;;;;;;;20.48;7.10;;;19.00;99.90;;;;;;5102037;28;20040;-56
2023/10/13 12:14:52;;;;;;;14.55;6.53;;;19.10;99.90;;;;;;5077977;28;20050;-60
2023/10/13 12:17:34;;;;;;;24.40;7.45;;;19.10;99.90;;;;;;5078384;28;20054;-56
2023/10/13 12:20:00;;;;;;;15.25;6.75;;;19.10;99.90;;;;;;5097090;28;20521;-57
2023/10/13 12:22:35;;;;;;;20.40;7.13;;;19.00;99.90;;;;;;5103585;28;20032;-57
2023/10/13 12:25:04;;;;;;;13.73;7.10;;;19.00;99.90;;;;;;5091581;28;20141;-57
2023/10/13 12:27:45;;;;;;;17.42;7.57;;;19.00;99.90;;;;;;5104700;27;20118;-58
2023/10/13 12:30:13;;;;;;;16.52;7.47;;;18.90;99.90;;;;;;5091378;28;20043;-57
2023/10/13 12:32:58;;;;;;;15.35;7.55;;;18.90;99.90;;;;;;5094783;28;20048;-58
2023/10/13 12:35:30;;;;;;;20.73;8.77;;;18.90;99.90;;;;;;5096613;28;20498;-59
2023/10/13 12:38:04;;;;;;;24.17;8.50;;;18.90;99.90;;;;;;5096183;27;20044;-57
2023/10/13 12:48:56;;;;;;;;;;;18.70;99.90;;;;;;5096082;27;20048;-58
2023/10/13 12:54:13;;;;;;;16.50;8.35;;;18.70;99.90;;;;;;5099368;28;20148;-58
2023/10/13 12:56:43;;;;;;;13.75;7.13;;;18.60;99.90;;;;;;5100324;27;20463;-58
2023/10/13 12:59:15;;;;;;;15.77;8.35;;;18.60;99.90;;;;;;5094438;28;20232;-58
2023/10/13 13:01:44;;;;;;;18.63;7.68;;;18.60;99.90;;;;;;5067199;28;20117;-56
2023/10/13 13:04:19;;;;;;;16.48;8.75;;;18.60;99.90;;;;;;5095162;28;20028;-56
2023/10/13 13:06:50;;;;;;;24.83;8.20;;;18.60;99.90;;;;;;5104402;27;20043;-57
2023/10/13 13:09:25;;;;;;;22.08;8.30;;;18.50;99.90;;;;;;5095308;28;20114;-58
2023/10/13 13:11:52;;;;;;;16.75;8.35;;;18.50;99.90;;;;;;5101566;28;20047;-56
2023/10/13 13:14:18;;;;;;;15.80;8.85;;;18.50;99.90;;;;;;5102363;28;20043;-58
2023/10/13 13:16:48;;;;;;;19.73;8.48;;;18.50;99.90;;;;;;5093069;27;20050;-58
2023/10/13 13:19:14;;;;;;;21.15;8.38;;;18.50;99.90;;;;;;5093750;28;20046;-60
2023/10/13 13:21:40;;;;;;;18.23;9.60;;;18.40;99.90;;;;;;5101123;28;20204;-58
2023/10/13 13:24:13;;;;;;;21.80;9.05;;;18.40;99.90;;;;;;5091449;28;20548;-58
2023/10/13 13:26:40;;;;;;;17.33;8.25;;;18.40;99.90;;;;;;5078460;27;20039;-56
2023/10/13 13:29:09;;;;;;;20.73;8.52;;;18.40;99.90;;;;;;5098623;28;20031;-59
2023/10/13 13:31:40;;;;;;;19.70;8.75;;;18.40;99.90;;;;;;5099712;28;20560;-60
2023/10/13 13:34:09;;;;;;;20.45;8.82;;;18.30;99.90;;;;;;5087982;28;20044;-57
2023/10/13 13:36:35;;;;;;;16.88;8.10;;;18.40;99.90;;;;;;5086731;28;20122;-57
2023/10/13 13:39:01;;;;;;;20.70;8.52;;;18.40;99.90;;;;;;5104122;28;20151;-57
2023/10/13 13:41:27;;;;;;;20.63;7.57;;;18.40;99.90;;;;;;5092713;28;20051;-56
2023/10/13 13:43:56;;;;;;;23.17;8.20;;;18.40;99.90;;;;;;5095847;28;20403;-60
2023/10/13 13:46:32;;;;;;;23.08;9.25;;;18.40;99.90;;;;;;5101684;28;20093;-58
2023/10/13 13:49:00;;;;;;;20.30;8.57;;;18.50;99.90;;;;;;5095011;28;20119;-57
2023/10/13 13:51:27;;;;;;;18.95;8.75;;;18.50;99.90;;;;;;5100793;28;20122;-57
2023/10/13 13:53:58;;;;;;;20.60;8.20;;;18.60;99.90;;;;;;5100944;28;20039;-57
2023/10/13 13:56:28;;;;;;;24.08;9.10;;;18.60;99.90;;;;;;5096118;28;20101;-60
2023/10/13 13:59:06;;;;;;;18.40;7.53;;;18.60;99.90;;;;;;5100869;28;20498;-59
2023/10/13 14:01:34;;;;;;;18.63;7.80;;;18.60;99.90;;;;;;5096008;28;20082;-60
2023/10/13 14:04:02;;;;;;;19.58;8.43;;;18.70;99.90;;;;;;5093262;28;20028;-60
2023/10/13 14:06:29;;;;;;;22.45;8.40;;;18.70;99.90;;;;;;5097008;28;20039;-59
2023/10/13 14:08:56;;;;;;;23.33;7.53;;;18.70;99.90;;;;;;5101733;28;20042;-60
2023/10/13 14:14:11;;;;;;;17.60;7.50;;;18.80;99.90;;;;;;5097925;28;20222;-58
2023/10/13 14:16:49;;;;;;;25.10;8.32;;;18.80;99.90;;;;;;5094572;28;20290;-59
2023/10/13 14:19:50;;;;;;;22.90;9.45;;;18.80;99.90;;;;;;5093884;28;20087;-56
2023/10/13 14:22:07;;;;;;;21.45;8.32;;;18.80;99.90;;;;;;5091952;28;20328;-60
2023/10/13 14:24:35;;;;;;;23.13;8.45;;;18.80;99.90;;;;;;5092721;28;20115;-59
2023/10/13 14:27:11;;;;;;;23.27;7.47;;;18.80;99.90;;;;;;5077046;28;20093;-58
2023/10/13 14:29:40;;;;;;;18.73;7.95;;;18.80;99.90;;;;;;5089707;28;20048;-56
2023/10/13 14:32:12;;;;;;;17.52;8.25;;;18.90;99.90;;;;;;5081413;28;20059;-60
2023/10/13 14:34:45;;;;;;;29.25;8.57;;;18.90;99.90;;;;;;5095309;28;20039;-60
2023/10/13 14:37:12;;;;;;;18.80;7.75;;;18.80;99.90;;;;;;5092255;28;20472;-60
2023/10/13 14:39:39;;;;;;;17.33;7.40;;;18.90;99.90;;;;;;5096551;28;20355;-59
2023/10/13 14:42:05;;;;;;;17.95;7.30;;;18.90;99.90;;;;;;5095470;28;20471;-60
2023/10/13 14:44:36;;;;;;;16.27;7.60;;;18.90;99.90;;;;;;5092771;28;20115;-60
2023/10/13 14:47:05;;;;;;;20.48;8.05;;;18.90;99.90;;;;;;5091807;28;20093;-60
2023/10/13 14:49:31;;;;;;;23.83;7.68;;;19.00;99.90;;;;;;5094216;27;20036;-60
2023/10/13 14:51:59;;;;;;;22.75;7.63;;;19.00;99.90;;;;;;5100761;28;20085;-60
2023/10/13 14:54:32;;;;;;;17.35;7.43;;;19.00;99.90;;;;;;5100084;28;20044;-60
2023/10/13 14:57:02;;;;;;;26.17;8.55;;;19.00;99.90;;;;;;5095880;27;20119;-59
2023/10/13 14:59:32;;;;;;;21.42;8.25;;;19.00;99.90;;;;;;5080866;28;20074;-60
2023/10/13 15:02:02;;;;;;;26.25;9.52;;;19.00;99.90;;;;;;5102175;28;20418;-60
2023/10/13 15:04:32;;;;;;;21.92;8.55;;;19.10;99.90;;;;;;5102115;28;20032;-59
2023/10/13 15:07:01;;;;;;;19.85;8.57;;;19.10;99.90;;;;;;5097660;27;20040;-58
2023/10/13 15:09:28;;;;;;;26.60;8.93;;;19.10;99.90;;;;;;5098749;28;20514;-56
2023/10/13 15:11:54;;;;;;;25.80;9.23;;;19.10;99.90;;;;;;5095902;28;20057;-60
2023/10/13 15:14:20;;;;;;;32.20;10.38;;;19.10;99.90;;;;;;5097348;27;20032;-60
2023/10/13 15:16:46;;;;;;;21.48;8.13;;;19.10;99.90;;;;;;5077778;28;20051;-60
2023/10/13 15:19:12;;;;;;;26.40;8.63;;;19.10;99.90;;;;;;5099793;27;20560;-60
2023/10/13 15:21:40;;;;;;;27.42;9.43;;;19.10;99.90;;;;;;5101737;28;20054;-59
2023/10/13 15:24:13;;;;;;;27.48;8.82;;;19.10;99.90;;;;;;5098250;28;20409;-60
2023/10/13 15:26:47;;;;;;;22.20;7.85;;;19.20;99.90;;;;;;5105727;27;20039;-60
2023/10/13 15:29:17;;;;;;;22.17;8.13;;;19.20;99.90;;;;;;5094433;28;20032;-59
2023/10/13 15:32:04;;;;;;;23.98;8.15;;;19.20;99.90;;;;;;5100204;28;20224;-58
2023/10/13 15:34:30;;;;;;;24.58;8.35;;;19.20;99.90;;;;;;5096736;28;21189;-60
2023/10/13 15:36:57;;;;;;;22.20;7.63;;;19.20;99.90;;;;;;5101600;28;20054;-60
2023/10/13 15:39:24;;;;;;;23.58;7.63;;;19.20;99.90;;;;;;5097833;28;20070;-60
2023/10/13 15:41:54;;;;;;;21.30;8.43;;;19.20;99.90;;;;;;5104069;28;20071;-60
2023/10/13 15:44:24;;;;;;;27.88;8.30;;;19.20;99.90;;;;;;5103721;28;20420;-59
2023/10/13 15:46:53;;;;;;;29.20;9.07;;;19.20;99.90;;;;;;5082736;28;20077;-60
2023/10/13 15:49:18;;;;;;;29.63;9.65;;;19.20;99.90;;;;;;5078945;28;20117;-60
2023/10/13 15:51:44;;;;;;;23.95;8.20;;;19.10;99.90;;;;;;5096906;27;20068;-60
2023/10/13 15:54:20;;;;;;;27.90;8.10;;;19.10;99.90;;;;;;5096718;27;20040;-59
2023/10/13 15:56:48;;;;;;;20.63;7.68;;;19.10;99.90;;;;;;5103378;27;20031;-60
2023/10/13 15:59:15;;;;;;;30.75;8.20;;;19.10;99.90;;;;;;5096713;28;20368;-60
2023/10/13 16:01:41;;;;;;;25.77;7.65;;;19.10;99.90;;;;;;5107989;27;20055;-60
2023/10/13 16:04:10;;;;;;;20.98;7.57;;;19.10;99.90;;;;;;5093656;28;20043;-60
2023/10/13 16:06:40;;;;;;;17.70;6.45;;;19.10;99.90;;;;;;5103678;28;20054;-60
2023/10/13 16:09:13;;;;;;;23.67;7.40;;;19.10;99.90;;;;;;5094335;28;20115;-60
2023/10/13 16:11:43;;;;;;;22.27;6.70;;;19.00;99.90;;;;;;5092057;28;20068;-60
2023/10/13 16:14:10;;;;;;;15.77;6.28;;;19.00;99.90;;;;;;5094969;28;20031;-59